sensor_id;sensor_type;location;lat;lon;timestamp;P1;durP1;ratioP1;P2;durP2;ratioP2
35907;SDS011;22003;50.320;8.054;2022-11-15T05:03:32;10.10;;;5.13;;
35907;SDS011;22003;50.320;8.054;2022-11-15T05:06:16;9.75;;;5.15;;
35907;SDS011;22003;50.320;8.054;2022-11-15T05:08:41;8.20;;;5.68;;
35907;SDS011;22003;50.320;8.054;2022-11-15T05:11:07;6.97;;;4.82;;
35907;SDS011;22003;50.320;8.054;2022-11-15T05:13:32;9.50;;;5.25;;
35907;SDS011;22003;50.320;8.054;2022-11-15T05:15:57;10.43;;;5.60;;
35907;SDS011;22003;50.320;8.054;2022-11-15T05:18:22;9.45;;;5.82;;
35907;SDS011;22003;50.320;8.054;2022-11-15T05:20:47;9.95;;;6.25;;
35907;SDS011;22003;50.320;8.054;2022-11-15T05:23:12;10.23;;;6.43;;
35907;SDS011;22003;50.320;8.054;2022-11-15T05:25:37;9.95;;;6.57;;
35907;SDS011;22003;50.320;8.054;2022-11-15T05:28:03;8.27;;;6.22;;
35907;SDS011;22003;50.320;8.054;2022-11-15T05:30:28;11.10;;;6.47;;
35907;SDS011;22003;50.320;8.054;2022-11-15T05:32:53;10.07;;;6.10;;
35907;SDS011;22003;50.320;8.054;2022-11-15T05:35:20;11.07;;;6.73;;
35907;SDS011;22003;50.320;8.054;2022-11-15T05:37:46;10.38;;;6.70;;
35907;SDS011;22003;50.320;8.054;2022-11-15T05:40:11;12.48;;;6.72;;
35907;SDS011;22003;50.320;8.054;2022-11-15T05:42:36;9.30;;;5.53;;
35907;SDS011;22003;50.320;8.054;2022-11-15T05:45:02;18.33;;;8.77;;
35907;SDS011;22003;50.320;8.054;2022-11-15T05:47:29;10.82;;;6.45;;
35907;SDS011;22003;50.320;8.054;2022-11-15T05:49:55;11.32;;;7.10;;
35907;SDS011;22003;50.320;8.054;2022-11-15T05:52:22;10.40;;;6.93;;
35907;SDS011;22003;50.320;8.054;2022-11-15T05:54:49;15.93;;;8.13;;
35907;SDS011;22003;50.320;8.054;2022-11-15T05:57:15;14.40;;;7.50;;
35907;SDS011;22003;50.320;8.054;2022-11-15T05:59:40;12.68;;;7.15;;
35907;SDS011;22003;50.320;8.054;2022-11-15T06:02:08;13.05;;;8.20;;
35907;SDS011;22003;50.320;8.054;2022-11-15T06:04:33;10.82;;;7.45;;
35907;SDS011;22003;50.320;8.054;2022-11-15T06:06:58;12.95;;;7.53;;
35907;SDS011;22003;50.320;8.054;2022-11-15T06:09:23;16.23;;;8.40;;
35907;SDS011;22003;50.320;8.054;2022-11-15T06:11:48;17.67;;;8.55;;
35907;SDS011;22003;50.320;8.054;2022-11-15T06:14:14;14.05;;;8.23;;
35907;SDS011;22003;50.320;8.054;2022-11-15T06:16:39;15.07;;;8.50;;
35907;SDS011;22003;50.320;8.054;2022-11-15T06:19:05;10.20;;;7.10;;
35907;SDS011;22003;50.320;8.054;2022-11-15T06:21:30;15.63;;;7.80;;
35907;SDS011;22003;50.320;8.054;2022-11-15T06:23:55;14.25;;;7.75;;
35907;SDS011;22003;50.320;8.054;2022-11-15T06:26:21;12.02;;;7.13;;
35907;SDS011;22003;50.320;8.054;2022-11-15T06:28:46;13.02;;;7.75;;
35907;SDS011;22003;50.320;8.054;2022-11-15T06:31:11;12.88;;;7.65;;
35907;SDS011;22003;50.320;8.054;2022-11-15T06:33:36;13.68;;;8.40;;
35907;SDS011;22003;50.320;8.054;2022-11-15T06:36:05;13.82;;;9.73;;
35907;SDS011;22003;50.320;8.054;2022-11-15T06:38:31;15.93;;;9.82;;
35907;SDS011;22003;50.320;8.054;2022-11-15T06:41:02;16.30;;;9.70;;
35907;SDS011;22003;50.320;8.054;2022-11-15T06:43:28;17.25;;;8.40;;
35907;SDS011;22003;50.320;8.054;2022-11-15T06:45:53;20.35;;;11.77;;
35907;SDS011;22003;50.320;8.054;2022-11-15T06:48:18;37.22;;;14.45;;
35907;SDS011;22003;50.320;8.054;2022-11-15T06:50:49;26.23;;;12.90;;
35907;SDS011;22003;50.320;8.054;2022-11-15T06:53:14;28.13;;;15.18;;
35907;SDS011;22003;50.320;8.054;2022-11-15T06:55:40;34.83;;;14.57;;
35907;SDS011;22003;50.320;8.054;2022-11-15T06:58:05;37.17;;;15.20;;
35907;SDS011;22003;50.320;8.054;2022-11-15T07:00:30;19.98;;;11.00;;
35907;SDS011;22003;50.320;8.054;2022-11-15T07:02:56;13.77;;;8.77;;
35907;SDS011;22003;50.320;8.054;2022-11-15T07:05:24;16.63;;;10.00;;
35907;SDS011;22003;50.320;8.054;2022-11-15T07:07:55;14.18;;;8.93;;
35907;SDS011;22003;50.320;8.054;2022-11-15T07:10:21;16.65;;;8.40;;
35907;SDS011;22003;50.320;8.054;2022-11-15T07:12:47;18.08;;;8.15;;
35907;SDS011;22003;50.320;8.054;2022-11-15T07:15:12;14.48;;;8.38;;
35907;SDS011;22003;50.320;8.054;2022-11-15T07:17:37;14.20;;;8.07;;
35907;SDS011;22003;50.320;8.054;2022-11-15T07:20:03;18.00;;;8.67;;
35907;SDS011;22003;50.320;8.054;2022-11-15T07:22:28;11.85;;;8.20;;
35907;SDS011;22003;50.320;8.054;2022-11-15T07:24:53;13.88;;;8.93;;
35907;SDS011;22003;50.320;8.054;2022-11-15T07:27:18;16.00;;;9.63;;
35907;SDS011;22003;50.320;8.054;2022-11-15T07:29:44;11.20;;;8.02;;
35907;SDS011;22003;50.320;8.054;2022-11-15T07:32:09;12.13;;;7.67;;
35907;SDS011;22003;50.320;8.054;2022-11-15T07:34:34;14.57;;;8.63;;
35907;SDS011;22003;50.320;8.054;2022-11-15T07:36:59;14.90;;;8.13;;
35907;SDS011;22003;50.320;8.054;2022-11-15T07:39:24;14.97;;;8.23;;
35907;SDS011;22003;50.320;8.054;2022-11-15T07:41:49;17.85;;;8.25;;
35907;SDS011;22003;50.320;8.054;2022-11-15T07:44:34;25.08;;;12.25;;
35907;SDS011;22003;50.320;8.054;2022-11-15T07:47:00;25.75;;;11.65;;
35907;SDS011;22003;50.320;8.054;2022-11-15T07:49:25;44.60;;;20.30;;
35907;SDS011;22003;50.320;8.054;2022-11-15T07:51:50;19.92;;;10.55;;
35907;SDS011;22003;50.320;8.054;2022-11-15T07:54:15;17.33;;;10.30;;
35907;SDS011;22003;50.320;8.054;2022-11-15T07:56:40;38.70;;;18.52;;
35907;SDS011;22003;50.320;8.054;2022-11-15T07:59:06;35.72;;;18.77;;
35907;SDS011;22003;50.320;8.054;2022-11-15T08:01:31;29.00;;;16.02;;
35907;SDS011;22003;50.320;8.054;2022-11-15T08:03:57;18.05;;;11.30;;
35907;SDS011;22003;50.320;8.054;2022-11-15T08:06:22;16.67;;;10.25;;
35907;SDS011;22003;50.320;8.054;2022-11-15T08:08:47;21.50;;;11.60;;
35907;SDS011;22003;50.320;8.054;2022-11-15T08:11:13;13.93;;;8.82;;
35907;SDS011;22003;50.320;8.054;2022-11-15T08:13:38;13.77;;;8.95;;
35907;SDS011;22003;50.320;8.054;2022-11-15T08:16:04;19.50;;;10.32;;
35907;SDS011;22003;50.320;8.054;2022-11-15T08:18:30;19.50;;;9.50;;
35907;SDS011;22003;50.320;8.054;2022-11-15T08:20:58;18.02;;;9.65;;
35907;SDS011;22003;50.320;8.054;2022-11-15T08:23:23;20.15;;;9.93;;
35907;SDS011;22003;50.320;8.054;2022-11-15T08:25:48;19.60;;;8.18;;
35907;SDS011;22003;50.320;8.054;2022-11-15T08:28:15;18.73;;;8.40;;
35907;SDS011;22003;50.320;8.054;2022-11-15T08:30:41;18.58;;;8.48;;
35907;SDS011;22003;50.320;8.054;2022-11-15T08:33:09;18.08;;;8.23;;
35907;SDS011;22003;50.320;8.054;2022-11-15T08:35:34;24.77;;;8.35;;
35907;SDS011;22003;50.320;8.054;2022-11-15T08:37:59;22.27;;;8.98;;
35907;SDS011;22003;50.320;8.054;2022-11-15T08:40:25;18.97;;;8.37;;
35907;SDS011;22003;50.320;8.054;2022-11-15T08:42:51;26.95;;;9.73;;
35907;SDS011;22003;50.320;8.054;2022-11-15T08:45:16;23.52;;;9.85;;
35907;SDS011;22003;50.320;8.054;2022-11-15T08:47:42;24.38;;;8.77;;
35907;SDS011;22003;50.320;8.054;2022-11-15T08:50:07;18.80;;;9.03;;
35907;SDS011;22003;50.320;8.054;2022-11-15T08:52:32;20.90;;;8.63;;
35907;SDS011;22003;50.320;8.054;2022-11-15T08:54:58;17.00;;;7.50;;
35907;SDS011;22003;50.320;8.054;2022-11-15T08:57:23;14.30;;;7.40;;
35907;SDS011;22003;50.320;8.054;2022-11-15T08:59:48;9.48;;;5.80;;
35907;SDS011;22003;50.320;8.054;2022-11-15T09:02:13;9.43;;;4.97;;
35907;SDS011;22003;50.320;8.054;2022-11-15T09:04:42;9.60;;;5.40;;
35907;SDS011;22003;50.320;8.054;2022-11-15T09:07:08;8.73;;;4.50;;
35907;SDS011;22003;50.320;8.054;2022-11-15T09:09:33;10.52;;;4.43;;
35907;SDS011;22003;50.320;8.054;2022-11-15T09:11:58;6.80;;;3.92;;
35907;SDS011;22003;50.320;8.054;2022-11-15T09:14:23;10.15;;;4.20;;
35907;SDS011;22003;50.320;8.054;2022-11-15T09:16:49;7.78;;;3.53;;
35907;SDS011;22003;50.320;8.054;2022-11-15T09:19:14;11.02;;;4.05;;
35907;SDS011;22003;50.320;8.054;2022-11-15T09:21:39;5.28;;;3.40;;
35907;SDS011;22003;50.320;8.054;2022-11-15T09:24:04;6.15;;;3.38;;
35907;SDS011;22003;50.320;8.054;2022-11-15T09:26:30;10.27;;;3.75;;
35907;SDS011;22003;50.320;8.054;2022-11-15T09:28:55;4.82;;;2.95;;
35907;SDS011;22003;50.320;8.054;2022-11-15T09:31:20;4.28;;;2.60;;
35907;SDS011;22003;50.320;8.054;2022-11-15T09:33:45;5.53;;;2.87;;
35907;SDS011;22003;50.320;8.054;2022-11-15T09:36:10;9.18;;;3.63;;
35907;SDS011;22003;50.320;8.054;2022-11-15T09:38:36;5.50;;;3.80;;
35907;SDS011;22003;50.320;8.054;2022-11-15T09:41:17;5.57;;;3.60;;
35907;SDS011;22003;50.320;8.054;2022-11-15T09:43:58;7.57;;;3.50;;
35907;SDS011;22003;50.320;8.054;2022-11-15T09:46:32;5.97;;;3.38;;
35907;SDS011;22003;50.320;8.054;2022-11-15T09:49:01;4.45;;;2.47;;
35907;SDS011;22003;50.320;8.054;2022-11-15T09:51:33;6.30;;;2.45;;
35907;SDS011;22003;50.320;8.054;2022-11-15T09:54:10;4.03;;;2.25;;
35907;SDS011;22003;50.320;8.054;2022-11-15T09:56:37;4.03;;;2.60;;
35907;SDS011;22003;50.320;8.054;2022-11-15T09:59:18;3.08;;;2.35;;
35907;SDS011;22003;50.320;8.054;2022-11-15T10:02:10;2.92;;;1.95;;
35907;SDS011;22003;50.320;8.054;2022-11-15T10:04:37;5.50;;;2.20;;
35907;SDS011;22003;50.320;8.054;2022-11-15T10:09:39;2.73;;;2.37;;
35907;SDS011;22003;50.320;8.054;2022-11-15T10:12:07;2.65;;;2.05;;
35907;SDS011;22003;50.320;8.054;2022-11-15T10:14:32;2.78;;;2.03;;
35907;SDS011;22003;50.320;8.054;2022-11-15T10:17:02;5.90;;;2.35;;
35907;SDS011;22003;50.320;8.054;2022-11-15T10:22:17;2.70;;;1.80;;
35907;SDS011;22003;50.320;8.054;2022-11-15T10:24:45;6.43;;;2.35;;
35907;SDS011;22003;50.320;8.054;2022-11-15T10:27:12;3.30;;;2.15;;
35907;SDS011;22003;50.320;8.054;2022-11-15T10:29:40;3.80;;;1.90;;
35907;SDS011;22003;50.320;8.054;2022-11-15T10:32:07;4.63;;;1.80;;
35907;SDS011;22003;50.320;8.054;2022-11-15T10:34:35;5.10;;;2.10;;
35907;SDS011;22003;50.320;8.054;2022-11-15T10:37:00;6.13;;;2.20;;
35907;SDS011;22003;50.320;8.054;2022-11-15T10:39:27;3.03;;;1.83;;
35907;SDS011;22003;50.320;8.054;2022-11-15T10:41:52;2.50;;;1.95;;
35907;SDS011;22003;50.320;8.054;2022-11-15T10:44:18;3.70;;;1.93;;
35907;SDS011;22003;50.320;8.054;2022-11-15T10:46:48;2.42;;;1.80;;
35907;SDS011;22003;50.320;8.054;2022-11-15T10:51:50;4.88;;;1.85;;
35907;SDS011;22003;50.320;8.054;2022-11-15T10:54:23;2.67;;;1.80;;
35907;SDS011;22003;50.320;8.054;2022-11-15T10:56:50;2.33;;;1.77;;
35907;SDS011;22003;50.320;8.054;2022-11-15T10:59:18;3.30;;;1.90;;
35907;SDS011;22003;50.320;8.054;2022-11-15T11:01:46;7.47;;;2.00;;
35907;SDS011;22003;50.320;8.054;2022-11-15T11:04:12;6.82;;;2.10;;
35907;SDS011;22003;50.320;8.054;2022-11-15T11:06:51;2.33;;;1.92;;
35907;SDS011;22003;50.320;8.054;2022-11-15T11:09:36;4.80;;;1.83;;
35907;SDS011;22003;50.320;8.054;2022-11-15T11:12:03;5.55;;;1.83;;
35907;SDS011;22003;50.320;8.054;2022-11-15T11:14:35;2.25;;;1.75;;
35907;SDS011;22003;50.320;8.054;2022-11-15T11:25:11;3.25;;;2.22;;
35907;SDS011;22003;50.320;8.054;2022-11-15T11:30:09;3.60;;;2.45;;
35907;SDS011;22003;50.320;8.054;2022-11-15T11:32:54;3.90;;;2.67;;
35907;SDS011;22003;50.320;8.054;2022-11-15T11:35:32;3.22;;;2.17;;
35907;SDS011;22003;50.320;8.054;2022-11-15T11:50:29;5.47;;;2.17;;
35907;SDS011;22003;50.320;8.054;2022-11-15T11:52:57;4.18;;;2.50;;
35907;SDS011;22003;50.320;8.054;2022-11-15T11:55:24;3.95;;;1.83;;
35907;SDS011;22003;50.320;8.054;2022-11-15T12:00:35;4.85;;;2.22;;
35907;SDS011;22003;50.320;8.054;2022-11-15T12:05:48;3.45;;;2.30;;
35907;SDS011;22003;50.320;8.054;2022-11-15T12:13:29;4.60;;;1.75;;
35907;SDS011;22003;50.320;8.054;2022-11-15T12:18:35;4.70;;;2.00;;
35907;SDS011;22003;50.320;8.054;2022-11-15T12:21:04;4.97;;;2.47;;
35907;SDS011;22003;50.320;8.054;2022-11-15T12:23:38;4.50;;;1.63;;
35907;SDS011;22003;50.320;8.054;2022-11-15T12:26:06;4.60;;;1.98;;
35907;SDS011;22003;50.320;8.054;2022-11-15T12:28:43;3.40;;;2.30;;
35907;SDS011;22003;50.320;8.054;2022-11-15T12:31:15;4.43;;;2.20;;
35907;SDS011;22003;50.320;8.054;2022-11-15T12:33:42;4.22;;;2.33;;
35907;SDS011;22003;50.320;8.054;2022-11-15T12:36:10;2.57;;;2.03;;
35907;SDS011;22003;50.320;8.054;2022-11-15T12:38:52;3.35;;;2.33;;
35907;SDS011;22003;50.320;8.054;2022-11-15T12:41:21;4.10;;;2.10;;
35907;SDS011;22003;50.320;8.054;2022-11-15T12:43:47;3.50;;;2.35;;
35907;SDS011;22003;50.320;8.054;2022-11-15T12:46:18;3.65;;;2.20;;
35907;SDS011;22003;50.320;8.054;2022-11-15T12:48:47;2.53;;;2.10;;
35907;SDS011;22003;50.320;8.054;2022-11-15T12:51:12;4.63;;;2.17;;
35907;SDS011;22003;50.320;8.054;2022-11-15T12:53:37;3.88;;;2.70;;
35907;SDS011;22003;50.320;8.054;2022-11-15T12:58:39;5.07;;;2.70;;
35907;SDS011;22003;50.320;8.054;2022-11-15T13:01:06;4.10;;;2.75;;
35907;SDS011;22003;50.320;8.054;2022-11-15T13:03:31;8.85;;;3.50;;
35907;SDS011;22003;50.320;8.054;2022-11-15T13:05:57;6.07;;;3.50;;
35907;SDS011;22003;50.320;8.054;2022-11-15T13:08:35;5.63;;;3.63;;
35907;SDS011;22003;50.320;8.054;2022-11-15T13:11:18;8.48;;;3.65;;
35907;SDS011;22003;50.320;8.054;2022-11-15T13:13:45;6.22;;;3.60;;
35907;SDS011;22003;50.320;8.054;2022-11-15T13:16:10;4.10;;;3.53;;
35907;SDS011;22003;50.320;8.054;2022-11-15T13:18:42;6.45;;;3.30;;
35907;SDS011;22003;50.320;8.054;2022-11-15T13:21:21;5.90;;;3.80;;
35907;SDS011;22003;50.320;8.054;2022-11-15T13:24:09;10.00;;;4.38;;
35907;SDS011;22003;50.320;8.054;2022-11-15T13:26:35;8.98;;;4.60;;
35907;SDS011;22003;50.320;8.054;2022-11-15T13:29:02;5.55;;;3.88;;
35907;SDS011;22003;50.320;8.054;2022-11-15T13:31:37;6.10;;;3.97;;
35907;SDS011;22003;50.320;8.054;2022-11-15T13:34:16;7.10;;;3.63;;
35907;SDS011;22003;50.320;8.054;2022-11-15T13:36:42;6.88;;;3.90;;
35907;SDS011;22003;50.320;8.054;2022-11-15T13:39:23;6.82;;;3.78;;
35907;SDS011;22003;50.320;8.054;2022-11-15T13:41:50;6.50;;;3.83;;
35907;SDS011;22003;50.320;8.054;2022-11-15T13:44:25;4.30;;;3.47;;
35907;SDS011;22003;50.320;8.054;2022-11-15T13:47:00;10.65;;;4.65;;
35907;SDS011;22003;50.320;8.054;2022-11-15T13:49:30;7.28;;;3.58;;
35907;SDS011;22003;50.320;8.054;2022-11-15T13:51:56;7.07;;;3.92;;
35907;SDS011;22003;50.320;8.054;2022-11-15T13:56:55;6.90;;;3.70;;
35907;SDS011;22003;50.320;8.054;2022-11-15T13:59:24;4.60;;;3.85;;
35907;SDS011;22003;50.320;8.054;2022-11-15T14:01:50;5.80;;;4.25;;
35907;SDS011;22003;50.320;8.054;2022-11-15T14:04:18;6.53;;;4.30;;
35907;SDS011;22003;50.320;8.054;2022-11-15T14:06:44;6.88;;;4.63;;
35907;SDS011;22003;50.320;8.054;2022-11-15T14:11:35;9.80;;;4.85;;
35907;SDS011;22003;50.320;8.054;2022-11-15T14:16:38;6.40;;;4.43;;
35907;SDS011;22003;50.320;8.054;2022-11-15T14:19:04;7.95;;;4.88;;
35907;SDS011;22003;50.320;8.054;2022-11-15T14:21:30;8.65;;;4.93;;
35907;SDS011;22003;50.320;8.054;2022-11-15T14:24:14;8.02;;;4.57;;
35907;SDS011;22003;50.320;8.054;2022-11-15T14:26:39;7.60;;;4.72;;
35907;SDS011;22003;50.320;8.054;2022-11-15T14:31:48;6.68;;;4.22;;
35907;SDS011;22003;50.320;8.054;2022-11-15T14:34:13;6.63;;;4.22;;
35907;SDS011;22003;50.320;8.054;2022-11-15T14:36:39;6.57;;;3.95;;
35907;SDS011;22003;50.320;8.054;2022-11-15T14:39:04;7.55;;;4.65;;
35907;SDS011;22003;50.320;8.054;2022-11-15T14:41:33;6.50;;;4.07;;
35907;SDS011;22003;50.320;8.054;2022-11-15T14:43:59;6.97;;;4.13;;
35907;SDS011;22003;50.320;8.054;2022-11-15T14:46:24;11.27;;;4.43;;
35907;SDS011;22003;50.320;8.054;2022-11-15T14:48:49;4.67;;;3.60;;
35907;SDS011;22003;50.320;8.054;2022-11-15T14:51:15;5.85;;;4.65;;
35907;SDS011;22003;50.320;8.054;2022-11-15T14:53:41;7.80;;;3.90;;
35907;SDS011;22003;50.320;8.054;2022-11-15T14:56:07;5.85;;;4.03;;
35907;SDS011;22003;50.320;8.054;2022-11-15T14:58:32;5.57;;;4.35;;
35907;SDS011;22003;50.320;8.054;2022-11-15T15:00:57;7.90;;;4.45;;
35907;SDS011;22003;50.320;8.054;2022-11-15T15:03:22;6.97;;;4.63;;
35907;SDS011;22003;50.320;8.054;2022-11-15T15:05:47;5.97;;;4.30;;
35907;SDS011;22003;50.320;8.054;2022-11-15T15:08:12;6.95;;;4.53;;
35907;SDS011;22003;50.320;8.054;2022-11-15T15:10:42;6.95;;;4.72;;
35907;SDS011;22003;50.320;8.054;2022-11-15T15:13:25;7.03;;;5.60;;
35907;SDS011;22003;50.320;8.054;2022-11-15T15:15:51;7.07;;;4.35;;
35907;SDS011;22003;50.320;8.054;2022-11-15T15:18:17;10.45;;;5.63;;
35907;SDS011;22003;50.320;8.054;2022-11-15T15:20:43;11.40;;;5.72;;
35907;SDS011;22003;50.320;8.054;2022-11-15T15:23:16;6.95;;;5.13;;
35907;SDS011;22003;50.320;8.054;2022-11-15T15:25:42;9.23;;;6.05;;
35907;SDS011;22003;50.320;8.054;2022-11-15T15:28:08;6.93;;;5.50;;
35907;SDS011;22003;50.320;8.054;2022-11-15T15:30:34;8.55;;;5.53;;
35907;SDS011;22003;50.320;8.054;2022-11-15T15:32:59;7.20;;;5.15;;
35907;SDS011;22003;50.320;8.054;2022-11-15T15:35:24;9.98;;;5.30;;
35907;SDS011;22003;50.320;8.054;2022-11-15T15:37:51;8.15;;;5.75;;
35907;SDS011;22003;50.320;8.054;2022-11-15T15:40:17;9.23;;;5.53;;
35907;SDS011;22003;50.320;8.054;2022-11-15T15:42:43;10.98;;;7.85;;
35907;SDS011;22003;50.320;8.054;2022-11-15T15:45:08;21.50;;;15.27;;
35907;SDS011;22003;50.320;8.054;2022-11-15T15:47:34;10.60;;;8.40;;
35907;SDS011;22003;50.320;8.054;2022-11-15T15:49:59;8.98;;;7.75;;
35907;SDS011;22003;50.320;8.054;2022-11-15T15:52:24;10.90;;;6.57;;
35907;SDS011;22003;50.320;8.054;2022-11-15T15:54:50;9.35;;;7.97;;
35907;SDS011;22003;50.320;8.054;2022-11-15T15:57:15;10.33;;;7.73;;
35907;SDS011;22003;50.320;8.054;2022-11-15T15:59:40;8.10;;;6.18;;
35907;SDS011;22003;50.320;8.054;2022-11-15T16:02:05;8.18;;;6.45;;
35907;SDS011;22003;50.320;8.054;2022-11-15T16:04:31;9.32;;;6.97;;
35907;SDS011;22003;50.320;8.054;2022-11-15T16:06:59;11.30;;;6.70;;
35907;SDS011;22003;50.320;8.054;2022-11-15T16:09:24;10.43;;;5.90;;
35907;SDS011;22003;50.320;8.054;2022-11-15T16:12:08;9.77;;;6.35;;
35907;SDS011;22003;50.320;8.054;2022-11-15T16:14:33;11.50;;;6.78;;
35907;SDS011;22003;50.320;8.054;2022-11-15T16:16:59;8.23;;;6.47;;
35907;SDS011;22003;50.320;8.054;2022-11-15T16:19:24;10.13;;;6.80;;
35907;SDS011;22003;50.320;8.054;2022-11-15T16:21:49;11.18;;;6.68;;
35907;SDS011;22003;50.320;8.054;2022-11-15T16:24:16;13.60;;;8.38;;
35907;SDS011;22003;50.320;8.054;2022-11-15T16:26:42;10.25;;;6.40;;
35907;SDS011;22003;50.320;8.054;2022-11-15T16:29:07;9.18;;;6.40;;
35907;SDS011;22003;50.320;8.054;2022-11-15T16:31:34;9.73;;;6.80;;
35907;SDS011;22003;50.320;8.054;2022-11-15T16:33:59;11.65;;;7.57;;
35907;SDS011;22003;50.320;8.054;2022-11-15T16:36:25;11.02;;;8.05;;
35907;SDS011;22003;50.320;8.054;2022-11-15T16:38:50;14.60;;;9.50;;
35907;SDS011;22003;50.320;8.054;2022-11-15T16:41:16;18.55;;;13.63;;
35907;SDS011;22003;50.320;8.054;2022-11-15T16:43:43;15.97;;;10.87;;
35907;SDS011;22003;50.320;8.054;2022-11-15T16:46:12;14.05;;;8.82;;
35907;SDS011;22003;50.320;8.054;2022-11-15T16:48:38;9.93;;;6.97;;
35907;SDS011;22003;50.320;8.054;2022-11-15T16:51:04;10.32;;;6.53;;
35907;SDS011;22003;50.320;8.054;2022-11-15T16:53:29;11.00;;;7.95;;
35907;SDS011;22003;50.320;8.054;2022-11-15T16:55:55;14.17;;;10.73;;
35907;SDS011;22003;50.320;8.054;2022-11-15T16:58:20;9.43;;;7.40;;
35907;SDS011;22003;50.320;8.054;2022-11-15T17:00:49;9.10;;;6.13;;
35907;SDS011;22003;50.320;8.054;2022-11-15T17:03:14;15.98;;;9.77;;
35907;SDS011;22003;50.320;8.054;2022-11-15T17:05:39;10.85;;;6.03;;
35907;SDS011;22003;50.320;8.054;2022-11-15T17:08:04;19.38;;;13.68;;
35907;SDS011;22003;50.320;8.054;2022-11-15T17:10:30;14.23;;;6.88;;
35907;SDS011;22003;50.320;8.054;2022-11-15T17:12:55;10.25;;;6.40;;
35907;SDS011;22003;50.320;8.054;2022-11-15T17:15:20;12.30;;;7.30;;
35907;SDS011;22003;50.320;8.054;2022-11-15T17:17:50;7.27;;;5.00;;
35907;SDS011;22003;50.320;8.054;2022-11-15T17:20:16;7.63;;;5.40;;
35907;SDS011;22003;50.320;8.054;2022-11-15T17:22:41;12.70;;;7.90;;
35907;SDS011;22003;50.320;8.054;2022-11-15T17:25:06;15.80;;;9.50;;
35907;SDS011;22003;50.320;8.054;2022-11-15T17:27:32;18.83;;;14.60;;
35907;SDS011;22003;50.320;8.054;2022-11-15T17:29:57;14.65;;;9.10;;
35907;SDS011;22003;50.320;8.054;2022-11-15T17:32:22;13.27;;;7.57;;
35907;SDS011;22003;50.320;8.054;2022-11-15T17:34:47;18.30;;;11.93;;
35907;SDS011;22003;50.320;8.054;2022-11-15T17:37:12;16.02;;;11.18;;
35907;SDS011;22003;50.320;8.054;2022-11-15T17:39:37;14.98;;;8.52;;
35907;SDS011;22003;50.320;8.054;2022-11-15T17:42:02;9.77;;;6.95;;
35907;SDS011;22003;50.320;8.054;2022-11-15T17:44:28;7.55;;;5.22;;
35907;SDS011;22003;50.320;8.054;2022-11-15T17:46:53;10.48;;;6.00;;
35907;SDS011;22003;50.320;8.054;2022-11-15T17:49:18;10.95;;;7.30;;
35907;SDS011;22003;50.320;8.054;2022-11-15T17:51:43;9.73;;;6.13;;
35907;SDS011;22003;50.320;8.054;2022-11-15T17:54:09;15.23;;;6.63;;
35907;SDS011;22003;50.320;8.054;2022-11-15T17:56:36;9.50;;;6.10;;
35907;SDS011;22003;50.320;8.054;2022-11-15T17:59:02;13.77;;;6.78;;
35907;SDS011;22003;50.320;8.054;2022-11-15T18:03:53;10.67;;;4.97;;
35907;SDS011;22003;50.320;8.054;2022-11-15T18:06:18;8.18;;;4.75;;
35907;SDS011;22003;50.320;8.054;2022-11-15T18:08:45;14.50;;;7.03;;
35907;SDS011;22003;50.320;8.054;2022-11-15T18:11:15;14.48;;;8.05;;
35907;SDS011;22003;50.320;8.054;2022-11-15T18:13:41;9.48;;;6.15;;
35907;SDS011;22003;50.320;8.054;2022-11-15T18:16:08;8.77;;;4.47;;
35907;SDS011;22003;50.320;8.054;2022-11-15T18:18:34;10.10;;;5.63;;
35907;SDS011;22003;50.320;8.054;2022-11-15T18:21:06;10.00;;;5.93;;
35907;SDS011;22003;50.320;8.054;2022-11-15T18:23:32;8.52;;;4.63;;
35907;SDS011;22003;50.320;8.054;2022-11-15T18:25:58;6.10;;;4.18;;
35907;SDS011;22003;50.320;8.054;2022-11-15T18:28:33;7.10;;;4.30;;
35907;SDS011;22003;50.320;8.054;2022-11-15T18:30:59;10.38;;;4.32;;
35907;SDS011;22003;50.320;8.054;2022-11-15T18:33:25;5.20;;;3.47;;
35907;SDS011;22003;50.320;8.054;2022-11-15T18:35:57;6.63;;;4.10;;
35907;SDS011;22003;50.320;8.054;2022-11-15T18:38:22;6.18;;;4.10;;
35907;SDS011;22003;50.320;8.054;2022-11-15T18:40:47;6.90;;;4.95;;
35907;SDS011;22003;50.320;8.054;2022-11-15T18:43:13;5.38;;;3.35;;
35907;SDS011;22003;50.320;8.054;2022-11-15T18:45:38;6.50;;;3.58;;
35907;SDS011;22003;50.320;8.054;2022-11-15T18:48:03;9.63;;;5.63;;
35907;SDS011;22003;50.320;8.054;2022-11-15T18:50:28;37.63;;;17.33;;
35907;SDS011;22003;50.320;8.054;2022-11-15T18:52:53;8.73;;;5.60;;
35907;SDS011;22003;50.320;8.054;2022-11-15T18:55:18;9.17;;;5.50;;
35907;SDS011;22003;50.320;8.054;2022-11-15T18:57:43;7.53;;;5.10;;
35907;SDS011;22003;50.320;8.054;2022-11-15T19:00:09;16.73;;;8.30;;
35907;SDS011;22003;50.320;8.054;2022-11-15T19:02:34;20.83;;;9.80;;
35907;SDS011;22003;50.320;8.054;2022-11-15T19:04:59;17.85;;;8.15;;
35907;SDS011;22003;50.320;8.054;2022-11-15T19:07:24;8.65;;;4.45;;
35907;SDS011;22003;50.320;8.054;2022-11-15T19:09:49;8.55;;;5.18;;
35907;SDS011;22003;50.320;8.054;2022-11-15T19:12:15;5.45;;;4.40;;
35907;SDS011;22003;50.320;8.054;2022-11-15T19:14:40;12.15;;;6.65;;
35907;SDS011;22003;50.320;8.054;2022-11-15T19:17:05;11.10;;;6.17;;
35907;SDS011;22003;50.320;8.054;2022-11-15T19:19:30;34.92;;;15.65;;
35907;SDS011;22003;50.320;8.054;2022-11-15T19:21:56;18.02;;;9.45;;
35907;SDS011;22003;50.320;8.054;2022-11-15T19:24:22;19.45;;;8.20;;
35907;SDS011;22003;50.320;8.054;2022-11-15T19:26:47;18.35;;;8.85;;
35907;SDS011;22003;50.320;8.054;2022-11-15T19:29:12;21.35;;;11.82;;
35907;SDS011;22003;50.320;8.054;2022-11-15T19:31:41;15.50;;;8.13;;
35907;SDS011;22003;50.320;8.054;2022-11-15T19:34:06;21.08;;;9.85;;
35907;SDS011;22003;50.320;8.054;2022-11-15T19:36:33;19.15;;;8.30;;
35907;SDS011;22003;50.320;8.054;2022-11-15T19:39:00;7.97;;;3.73;;
35907;SDS011;22003;50.320;8.054;2022-11-15T19:41:28;11.00;;;6.18;;
35907;SDS011;22003;50.320;8.054;2022-11-15T19:43:54;11.02;;;6.05;;
35907;SDS011;22003;50.320;8.054;2022-11-15T19:46:19;14.73;;;6.60;;
35907;SDS011;22003;50.320;8.054;2022-11-15T19:48:46;17.67;;;9.18;;
35907;SDS011;22003;50.320;8.054;2022-11-15T19:51:12;15.38;;;7.38;;
35907;SDS011;22003;50.320;8.054;2022-11-15T19:53:38;13.65;;;7.25;;
35907;SDS011;22003;50.320;8.054;2022-11-15T19:56:04;23.88;;;10.73;;
35907;SDS011;22003;50.320;8.054;2022-11-15T19:58:30;17.77;;;8.10;;
35907;SDS011;22003;50.320;8.054;2022-11-15T20:01:02;13.35;;;6.20;;
35907;SDS011;22003;50.320;8.054;2022-11-15T20:03:28;8.55;;;4.20;;
35907;SDS011;22003;50.320;8.054;2022-11-15T20:05:58;15.93;;;7.70;;
35907;SDS011;22003;50.320;8.054;2022-11-15T20:08:24;15.57;;;6.88;;
35907;SDS011;22003;50.320;8.054;2022-11-15T20:10:49;12.52;;;6.40;;
35907;SDS011;22003;50.320;8.054;2022-11-15T20:13:14;8.07;;;5.30;;
35907;SDS011;22003;50.320;8.054;2022-11-15T20:15:41;12.40;;;6.25;;
35907;SDS011;22003;50.320;8.054;2022-11-15T20:18:06;10.82;;;8.02;;
35907;SDS011;22003;50.320;8.054;2022-11-15T20:20:31;12.50;;;7.72;;
35907;SDS011;22003;50.320;8.054;2022-11-15T20:22:56;11.27;;;7.97;;
35907;SDS011;22003;50.320;8.054;2022-11-15T20:25:22;10.05;;;6.22;;
35907;SDS011;22003;50.320;8.054;2022-11-15T20:27:47;12.77;;;8.15;;
35907;SDS011;22003;50.320;8.054;2022-11-15T20:30:12;13.32;;;7.70;;
35907;SDS011;22003;50.320;8.054;2022-11-15T20:32:37;25.27;;;13.87;;
35907;SDS011;22003;50.320;8.054;2022-11-15T20:35:02;15.00;;;8.73;;
35907;SDS011;22003;50.320;8.054;2022-11-15T20:37:27;18.52;;;12.02;;
35907;SDS011;22003;50.320;8.054;2022-11-15T20:39:53;12.52;;;8.25;;
35907;SDS011;22003;50.320;8.054;2022-11-15T20:42:18;16.03;;;9.43;;